Time,TemperatureF,DewpointF,PressureIn,WindDirection,WindDirectionDegrees,WindSpeedMPH,WindSpeedGustMPH,Humidity,HourlyPrecipIn,Conditions,Clouds,dailyrainin,SoftwareType,DateUTC
2013-06-14 00:11:00,47.2,46.0,30.40,WSW,239,0.0,0.0,95,0.00,,,0.00,weatherlink.com 1.10,2013-06-14 07:11:00,
2013-06-14 00:27:00,47.2,46.0,30.40,WSW,239,0.0,0.0,95,0.00,,,0.00,weatherlink.com 1.10,2013-06-14 07:27:00,
2013-06-14 00:42:00,46.7,45.0,30.40,WSW,239,0.0,0.0,95,0.00,,,0.00,weatherlink.com 1.10,2013-06-14 07:42:00,
2013-06-14 00:57:00,47.1,46.0,30.39,WSW,239,0.0,0.0,96,0.00,,,0.00,weatherlink.com 1.10,2013-06-14 07:57:00,
2013-06-14 01:12:00,47.7,47.0,30.39,WSW,239,0.0,1.0,96,0.00,,,0.00,weatherlink.com 1.10,2013-06-14 08:12:00,
2013-06-14 01:27:00,47.9,47.0,30.39,WSW,239,0.0,0.0,96,0.00,,,0.00,weatherlink.com 1.10,2013-06-14 08:27:00,
2013-06-14 01:42:00,47.4,46.0,30.39,WSW,239,0.0,0.0,96,0.00,,,0.00,weatherlink.com 1.10,2013-06-14 08:42:00,
2013-06-14 01:57:00,46.6,45.0,30.38,WSW,239,0.0,0.0,95,0.00,,,0.00,weatherlink.com 1.10,2013-06-14 08:57:00,
2013-06-14 02:12:00,46.8,46.0,30.38,WSW,239,0.0,0.0,97,0.00,,,0.00,weatherlink.com 1.10,2013-06-14 09:12:00,
2013-06-14 02:27:00,46.9,46.0,30.38,WSW,239,0.0,0.0,97,0.00,,,0.00,weatherlink.com 1.10,2013-06-14 09:27:00,
2013-06-14 02:42:00,47.3,47.0,30.38,WSW,239,0.0,0.0,97,0.00,,,0.00,weatherlink.com 1.10,2013-06-14 09:42:00,
2013-06-14 02:57:00,47.4,46.0,30.37,WSW,239,0.0,1.0,96,0.00,,,0.00,weatherlink.com 1.10,2013-06-14 09:57:00,
2013-06-14 03:12:00,47.2,46.0,30.37,WSW,239,0.0,0.0,96,0.00,,,0.00,weatherlink.com 1.10,2013-06-14 10:12:00,
2013-06-14 03:27:00,46.7,46.0,30.36,WSW,238,0.0,1.0,96,0.00,,,0.00,weatherlink.com 1.10,2013-06-14 10:27:00,
2013-06-14 03:42:00,46.1,45.0,30.36,WSW,239,0.0,0.0,96,0.00,,,0.00,weatherlink.com 1.10,2013-06-14 10:42:00,
2013-06-14 03:57:00,45.9,45.0,30.36,WSW,239,0.0,1.0,96,0.00,,,0.00,weatherlink.com 1.10,2013-06-14 10:57:00,
2013-06-14 04:12:00,45.1,44.0,30.36,WSW,239,0.0,0.0,96,0.00,,,0.00,weatherlink.com 1.10,2013-06-14 11:12:00,
2013-06-14 04:27:00,44.8,44.0,30.36,WSW,239,0.0,0.0,96,0.00,,,0.00,weatherlink.com 1.10,2013-06-14 11:27:00,
2013-06-14 04:42:00,43.9,43.0,30.36,WSW,239,0.0,0.0,96,0.00,,,0.00,weatherlink.com 1.10,2013-06-14 11:42:00,
2013-06-14 04:57:00,44.0,43.0,30.36,WSW,239,0.0,0.0,97,0.00,,,0.00,weatherlink.com 1.10,2013-06-14 11:57:00,
2013-06-14 05:12:00,43.7,43.0,30.36,WSW,239,0.0,0.0,97,0.00,,,0.00,weatherlink.com 1.10,2013-06-14 12:12:00,
2013-06-14 05:27:00,43.5,43.0,30.36,WSW,239,0.0,0.0,97,0.00,,,0.00,weatherlink.com 1.10,2013-06-14 12:27:00,
2013-06-14 05:42:00,43.6,43.0,30.36,WSW,239,0.0,0.0,97,0.00,,,0.00,weatherlink.com 1.10,2013-06-14 12:42:00,
2013-06-14 05:57:00,43.6,43.0,30.36,WSW,239,0.0,0.0,97,0.00,,,0.00,weatherlink.com 1.10,2013-06-14 12:57:00,
2013-06-14 06:12:00,43.6,43.0,30.36,WSW,239,0.0,0.0,97,0.00,,,0.00,weatherlink.com 1.10,2013-06-14 13:12:00,
2013-06-14 06:27:00,44.7,44.0,30.36,WSW,239,0.0,0.0,97,0.00,,,0.00,weatherlink.com 1.10,2013-06-14 13:27:00,
2013-06-14 06:42:00,45.4,45.0,30.36,WSW,239,0.0,0.0,97,0.00,,,0.00,weatherlink.com 1.10,2013-06-14 13:42:00,
2013-06-14 06:57:00,46.2,45.0,30.36,NNE,29,1.0,1.0,97,0.00,,,0.00,weatherlink.com 1.10,2013-06-14 13:57:00,
2013-06-14 07:12:00,45.9,45.0,30.35,NE,41,1.0,2.0,97,0.00,,,0.00,weatherlink.com 1.10,2013-06-14 14:12:00,
2013-06-14 07:27:00,46.1,45.0,30.35,NNE,24,0.0,1.0,97,0.00,,,0.00,weatherlink.com 1.10,2013-06-14 14:27:00,
2013-06-14 07:42:00,47.3,47.0,30.35,NE,34,1.0,2.0,97,0.00,,,0.00,weatherlink.com 1.10,2013-06-14 14:42:00,
2013-06-14 07:57:00,48.8,48.0,30.34,NNE,32,0.0,1.0,97,0.00,,,0.00,weatherlink.com 1.10,2013-06-14 14:57:00,
2013-06-14 08:12:00,48.8,48.0,30.34,ENE,59,1.0,2.0,96,0.00,,,0.00,weatherlink.com 1.10,2013-06-14 15:12:00,
2013-06-14 08:27:00,49.0,48.0,30.35,NE,54,1.0,2.0,95,0.00,,,0.00,weatherlink.com 1.10,2013-06-14 15:27:00,
2013-06-14 08:42:00,50.8,49.0,30.34,NE,54,0.0,2.0,93,0.00,,,0.00,weatherlink.com 1.10,2013-06-14 15:42:00,
2013-06-14 08:57:00,53.7,50.0,30.34,NE,46,0.0,2.0,86,0.00,,,0.00,weatherlink.com 1.10,2013-06-14 15:57:00,
2013-06-14 09:12:00,55.3,51.0,30.33,NE,48,0.0,2.0,85,0.00,,,0.00,weatherlink.com 1.10,2013-06-14 16:12:00,
2013-06-14 09:28:00,56.7,51.0,30.33,NNE,16,2.0,3.0,82,0.00,,,0.00,weatherlink.com 1.10,2013-06-14 16:28:00,
2013-06-14 09:43:00,58.0,52.0,30.33,NE,44,3.0,4.0,79,0.00,,,0.00,weatherlink.com 1.10,2013-06-14 16:43:00,
2013-06-14 09:58:00,58.9,52.0,30.33,NE,48,0.0,4.0,78,0.00,,,0.00,weatherlink.com 1.10,2013-06-14 16:58:00,
2013-06-14 10:13:00,60.2,51.0,30.32,WNW,300,1.0,4.0,72,0.00,,,0.00,weatherlink.com 1.10,2013-06-14 17:13:00,
2013-06-14 10:28:00,61.1,50.0,30.32,ENE,59,1.0,4.0,67,0.00,,,0.00,weatherlink.com 1.10,2013-06-14 17:28:00,
2013-06-14 10:43:00,62.6,51.0,30.31,NW,316,1.0,5.0,65,0.00,,,0.00,weatherlink.com 1.10,2013-06-14 17:43:00,
2013-06-14 10:58:00,63.4,51.0,30.31,NNW,345,1.0,6.0,64,0.00,,,0.00,weatherlink.com 1.10,2013-06-14 17:58:00,
2013-06-14 11:13:00,64.5,49.0,30.30,ENE,60,2.0,6.0,58,0.00,,,0.00,weatherlink.com 1.10,2013-06-14 18:13:00,
2013-06-14 11:28:00,64.2,50.0,30.30,West,281,0.0,7.0,60,0.00,,,0.00,weatherlink.com 1.10,2013-06-14 18:28:00,
2013-06-14 11:43:00,65.6,51.0,30.29,NNW,328,2.0,5.0,60,0.00,,,0.00,weatherlink.com 1.10,2013-06-14 18:43:00,
2013-06-14 11:58:00,65.7,50.0,30.29,NW,309,1.0,7.0,58,0.00,,,0.00,weatherlink.com 1.10,2013-06-14 18:58:00,
2013-06-14 12:13:00,65.9,51.0,30.29,ENE,57,2.0,4.0,59,0.00,,,0.00,weatherlink.com 1.10,2013-06-14 19:13:00,
2013-06-14 12:28:00,67.3,51.0,30.28,WNW,290,2.0,6.0,56,0.00,,,0.00,weatherlink.com 1.10,2013-06-14 19:28:00,
2013-06-14 12:43:00,66.7,51.0,30.27,WSW,250,2.0,8.0,57,0.00,,,0.00,weatherlink.com 1.10,2013-06-14 19:43:00,
2013-06-14 12:58:00,67.4,51.0,30.27,WNW,302,2.0,7.0,57,0.00,,,0.00,weatherlink.com 1.10,2013-06-14 19:58:00,
2013-06-14 13:13:00,67.7,51.0,30.26,ENE,67,5.0,7.0,55,0.00,,,0.00,weatherlink.com 1.10,2013-06-14 20:13:00,
2013-06-14 13:28:00,68.5,52.0,30.25,West,281,6.0,8.0,55,0.00,,,0.00,weatherlink.com 1.10,2013-06-14 20:28:00,
2013-06-14 13:43:00,69.3,50.0,30.25,NE,34,2.0,7.0,51,0.00,,,0.00,weatherlink.com 1.10,2013-06-14 20:43:00,
2013-06-14 13:58:00,69.6,51.0,30.24,WNW,295,1.0,8.0,51,0.00,,,0.00,weatherlink.com 1.10,2013-06-14 20:58:00,
2013-06-14 14:13:00,69.4,50.0,30.23,NNE,30,3.0,8.0,50,0.00,,,0.00,weatherlink.com 1.10,2013-06-14 21:13:00,
2013-06-14 14:28:00,70.8,52.0,30.22,NE,39,6.0,10.0,51,0.00,,,0.00,weatherlink.com 1.10,2013-06-14 21:28:00,
2013-06-14 14:44:00,70.7,50.0,30.21,NNW,328,1.0,8.0,49,0.00,,,0.00,weatherlink.com 1.10,2013-06-14 21:44:00,
2013-06-14 14:59:00,70.5,51.0,30.21,NW,324,2.0,7.0,50,0.00,,,0.00,weatherlink.com 1.10,2013-06-14 21:59:00,
2013-06-14 15:14:00,71.8,51.0,30.20,North,349,2.0,8.0,49,0.00,,,0.00,weatherlink.com 1.10,2013-06-14 22:14:00,
2013-06-14 15:29:00,70.8,52.0,30.20,NE,46,2.0,7.0,52,0.00,,,0.00,weatherlink.com 1.10,2013-06-14 22:29:00,
2013-06-14 15:44:00,70.9,51.0,30.19,NW,314,7.0,12.0,49,0.00,,,0.00,weatherlink.com 1.10,2013-06-14 22:44:00,
2013-06-14 15:59:00,70.7,52.0,30.18,NNW,343,2.0,10.0,52,0.00,,,0.00,weatherlink.com 1.10,2013-06-14 22:59:00,
2013-06-14 16:14:00,71.0,52.0,30.18,NW,325,1.0,8.0,51,0.00,,,0.00,weatherlink.com 1.10,2013-06-14 23:14:00,
2013-06-14 16:29:00,71.8,52.0,30.17,NNE,13,6.0,7.0,50,0.00,,,0.00,weatherlink.com 1.10,2013-06-14 23:29:00,
2013-06-14 16:44:00,71.4,52.0,30.16,NW,324,7.0,9.0,51,0.00,,,0.00,weatherlink.com 1.10,2013-06-14 23:44:00,
2013-06-14 16:59:00,70.5,52.0,30.16,NE,37,7.0,11.0,52,0.00,,,0.00,weatherlink.com 1.10,2013-06-14 23:59:00,
2013-06-14 17:14:00,70.9,53.0,30.15,SSE,159,1.0,10.0,53,0.00,,,0.00,weatherlink.com 1.10,2013-06-15 00:14:00,
2013-06-14 17:29:00,70.8,53.0,30.14,ESE,103,0.0,10.0,53,0.00,,,0.00,weatherlink.com 1.10,2013-06-15 00:29:00,
2013-06-14 17:44:00,71.4,53.0,30.14,SE,146,0.0,7.0,52,0.00,,,0.00,weatherlink.com 1.10,2013-06-15 00:44:00,
2013-06-14 17:59:00,71.3,52.0,30.12,NW,308,3.0,9.0,51,0.00,,,0.00,weatherlink.com 1.10,2013-06-15 00:59:00,
2013-06-14 18:14:00,70.8,52.0,30.12,ENE,77,1.0,10.0,52,0.00,,,0.00,weatherlink.com 1.10,2013-06-15 01:14:00,
2013-06-14 18:29:00,70.7,53.0,30.11,NNW,340,2.0,11.0,53,0.00,,,0.00,weatherlink.com 1.10,2013-06-15 01:29:00,
2013-06-14 18:44:00,70.2,52.0,30.11,NNW,339,2.0,7.0,53,0.00,,,0.00,weatherlink.com 1.10,2013-06-15 01:44:00,
2013-06-14 18:59:00,70.2,52.0,30.10,NE,36,1.0,5.0,53,0.00,,,0.00,weatherlink.com 1.10,2013-06-15 01:59:00,
2013-06-14 19:14:00,69.7,53.0,30.10,NNW,338,0.0,5.0,55,0.00,,,0.00,weatherlink.com 1.10,2013-06-15 02:14:00,
2013-06-14 19:29:00,69.2,52.0,30.10,NNW,328,2.0,6.0,55,0.00,,,0.00,weatherlink.com 1.10,2013-06-15 02:29:00,
2013-06-14 19:44:00,69.3,52.0,30.09,NE,44,1.0,4.0,55,0.00,,,0.00,weatherlink.com 1.10,2013-06-15 02:44:00,
2013-06-14 19:59:00,68.7,53.0,30.09,NNE,30,0.0,4.0,57,0.00,,,0.00,weatherlink.com 1.10,2013-06-15 02:59:00,
2013-06-14 20:14:00,66.6,52.0,30.09,NNE,23,0.0,5.0,60,0.00,,,0.00,weatherlink.com 1.10,2013-06-15 03:14:00,
2013-06-14 20:29:00,65.2,53.0,30.09,NW,309,0.0,1.0,64,0.00,,,0.00,weatherlink.com 1.10,2013-06-15 03:29:00,
2013-06-14 20:44:00,63.7,52.0,30.08,NW,309,0.0,1.0,67,0.00,,,0.00,weatherlink.com 1.10,2013-06-15 03:44:00,
2013-06-14 20:59:00,62.5,52.0,30.08,ESE,118,0.0,1.0,69,0.00,,,0.00,weatherlink.com 1.10,2013-06-15 03:59:00,
2013-06-14 21:14:00,61.5,52.0,30.08,NNW,328,0.0,1.0,71,0.00,,,0.00,weatherlink.com 1.10,2013-06-15 04:14:00,
2013-06-14 21:29:00,61.3,51.0,30.08,NNW,333,1.0,4.0,70,0.00,,,0.00,weatherlink.com 1.10,2013-06-15 04:29:00,
2013-06-14 21:44:00,61.1,51.0,30.08,NW,315,2.0,4.0,70,0.00,,,0.00,weatherlink.com 1.10,2013-06-15 04:44:00,
2013-06-14 21:59:00,60.6,51.0,30.08,NW,325,0.0,2.0,71,0.00,,,0.00,weatherlink.com 1.10,2013-06-15 04:59:00,
2013-06-14 22:14:00,60.1,51.0,30.08,NNW,343,0.0,4.0,72,0.00,,,0.00,weatherlink.com 1.10,2013-06-15 05:14:00,
2013-06-14 22:29:00,59.7,51.0,30.08,NW,315,0.0,4.0,72,0.00,,,0.00,weatherlink.com 1.10,2013-06-15 05:29:00,
2013-06-14 22:44:00,59.4,51.0,30.07,NW,318,0.0,6.0,73,0.00,,,0.00,weatherlink.com 1.10,2013-06-15 05:44:00,
2013-06-14 22:59:00,59.1,50.0,30.07,North,354,1.0,5.0,73,0.00,,,0.00,weatherlink.com 1.10,2013-06-15 05:59:00,
2013-06-14 23:14:00,58.9,51.0,30.07,NW,315,2.0,4.0,74,0.00,,,0.00,weatherlink.com 1.10,2013-06-15 06:14:00,
2013-06-14 23:29:00,58.6,51.0,30.06,NNW,328,1.0,6.0,75,0.00,,,0.00,weatherlink.com 1.10,2013-06-15 06:29:00,
2013-06-14 23:44:00,58.1,50.0,30.06,NNW,345,2.0,3.0,75,0.00,,,0.00,weatherlink.com 1.10,2013-06-15 06:44:00,
2013-06-14 23:59:00,57.8,50.0,30.06,NW,323,1.0,5.0,76,0.00,,,0.00,weatherlink.com 1.10,2013-06-15 06:59:00,